Página principal
METAR-TAF:

METAR-TAF

Aeroportos :

Aeroporto Internacional de Cartum

Cartum, Sudão

latitude: 15-36N, longitude: 032-33E, altura: 382 m

Observação actual do tempo

O boletim foi feito há 25 minutos, às 06:30 UTC
Vento 14 kt de nor-nordeste
Temperatura 18°C
Humidade 24%
Pressão 1019 hPa
Visibilidade 10 km ou mais
sem nuvens abaixo de 1500 metros e sem cumulonimbus

METAR: HSSS 260630Z 02014KT CAVOK 18/M03 Q1019 NOSIG

Hora: 08:55 (06:55 UTC)

Previsão

O boletim foi feito há 1 hora e 55 minutos, às 05:00 UTC
Previsão válida de 26 às 06 UTC a 27 às 12 UTC
Vento 12 kt de nor-nordeste com rajadas de 22 kt
Visibilidade 10 km ou mais
sem nuvens abaixo de 1500 metros e sem cumulonimbus

TAF: HSSS 260500Z 2606/2712 02012G22KT CAVOK

Observações e previsões do tempo de mais de 4000 aeroportos (mensagens METAR e TAF).

As estações disponíveis são os pontos amarelos e vermelhos sobre o mapa.

Mova o rato sobre o mapa para ver o nome da estação.

Depois clique no ponto para visualizar as observações e previsões meteorológicas.

Para alterar o mapa : clique nos botões verdes com uma cruz preta para aumentar o zoom; no botão verde com uma pitada de zoom; ou nas setas verdes para mapas adjacentes.


METAR-TAF: